Terminal Aerodrome Forecast
Issued by NWS Spokane, WA

Home | Current Version | Previous Version | Text Only | Print | Product List | Glossary On
Versions: 1 2 3 4 5 6 7 8 9 10 11 12 13 14 15 16 17 18 19 20 21 22 23 24 25 26 27 28 29 30 31 32 33
000
FTUS46 KOTX 020520
TAFGEG
TAF
KGEG 020520Z 0206/0306 20008KT P6SM FEW070 BKN120 OVC200
     FM020800 20013KT P6SM BKN060 OVC130
     FM021400 21018G26KT P6SM VCSH SCT040 BKN050 OVC080
     FM030200 22012KT P6SM FEW060 SCT080=

USA.gov is the U.S. government's official web portal to all federal, state and local government web resources and services.